Baki Akar — TCA3959 — position and weather

sailwx.info

Track history (hours):
 
Tides and Currents Weather Stations Pressure Air Temp Water Temp Dewpoint Dewpoint Depression Visibility Wind Speed Wind Dir Waves Ship Positions

Baki Akar

Last reported at 2017-Sep-15 13:26 UTC. Time now 2017-Sep-21 05:25 UTC.
Position N 37°28' E 025°56'.

Length 176 m; draft 10.1 m.

Type: Ship. MMSI: 271044414.

Date/timePositionNaut miles runAvg speedWind from/ knotsBaromVisibWave heightAir tempDewpointWater temp
2017-Sep-15 13:26N 37°28' E 025°56'512.4
2017-Sep-15 13:00N 37°33' E 025°54'13912.6
2017-Sep-15 02:01N 39°52' E 025°47'1213.0
2017-Sep-15 01:04N 40°00' E 025°58'312.6
2017-Sep-15 00:51N 40°01' E 026°02'  
2017-Sep-10 05:45N 40°44' E 029°38'312.0
2017-Sep-10 05:28N 40°45' E 029°34'610.4
2017-Sep-10 04:55N 40°44' E 029°26'4 8.9
2017-Sep-10 04:30N 40°43' E 029°22'4 8.9
2017-Sep-10 04:00N 40°44' E 029°16'611.5
2017-Sep-10 03:30N 40°44' E 029°08'611.8
2017-Sep-10 03:00N 40°44' E 029°00'611.5
2017-Sep-10 02:30N 40°43' E 028°53'611.8
2017-Sep-10 01:58N 40°43' E 028°45'1011.8
2017-Sep-10 01:08N 40°43' E 028°32'211.6
2017-Sep-10 00:59N 40°44' E 028°29'711.4
2017-Sep-10 00:24N 40°44' E 028°21'411.1
2017-Sep-10 00:00N 40°44' E 028°15'611.8
2017-Sep-09 23:30N 40°46' E 028°07'811.7
2017-Sep-09 22:51N 40°45' E 027°57'411.7
2017-Sep-09 22:30N 40°45' E 027°52'611.5
2017-Sep-09 22:00N 40°44' E 027°44'611.4
2017-Sep-09 21:30N 40°43' E 027°37'8510.7
2017-Sep-09 13:31N 39°58' E 026°01'411.8
2017-Sep-09 13:09N 39°56' E 025°57'211.5
2017-Sep-09 12:58N 39°54' E 025°55'510.3
2017-Sep-09 12:30N 39°50' E 025°51'510.0
2017-Sep-09 11:58N 39°47' E 025°57'1 1.3
2017-Sep-09 11:29N 39°47' E 025°58'0 0.0
2017-Sep-09 10:59N 39°47' E 025°58'0 0.0
2017-Sep-09 10:29N 39°47' E 025°58'0 0.0
2017-Sep-09 09:59N 39°47' E 025°58'0 0.0
2017-Sep-09 09:29N 39°47' E 025°58'0 0.0
2017-Sep-09 08:59N 39°47' E 025°58'0 0.0
2017-Sep-09 08:26N 39°47' E 025°58'0 0.0
2017-Sep-09 07:59N 39°47' E 025°58'0 0.0
2017-Sep-09 07:29N 39°47' E 025°58'0 0.0
2017-Sep-09 06:59N 39°47' E 025°58'0 0.0
2017-Sep-09 06:29N 39°47' E 025°58'0 0.0
2017-Sep-09 05:59N 39°47' E 025°58'0 0.0
2017-Sep-09 04:56N 39°47' E 025°58'0 0.0
2017-Sep-09 04:14N 39°47' E 025°58'0 0.0
2017-Sep-09 03:08N 39°47' E 025°58'0 0.0
2017-Sep-09 02:56N 39°47' E 025°58'0 0.0
2017-Sep-09 02:14N 39°47' E 025°58'0 0.0
2017-Sep-08 23:59N 39°47' E 025°58'0 0.0
2017-Sep-08 23:26N 39°47' E 025°58'0 0.0
2017-Sep-08 21:20N 39°47' E 025°58'0 0.0
2017-Sep-08 20:50N 39°47' E 025°58'0 0.0
2017-Sep-08 20:20N 39°47' E 025°58'0 0.0
2017-Sep-08 18:45N 39°46' E 025°58'12712.3
2017-Sep-08 08:24N 37°39' E 025°52'512.5
2017-Sep-08 08:00N 37°34' E 025°53'612.8
2017-Sep-08 07:30N 37°28' E 025°54'23211.3
2017-Sep-07 10:56N 36°09' E 030°27'613.4
2017-Sep-07 10:30N 36°13' E 030°31'713.9
2017-Sep-07 10:00N 36°20' E 030°35'713.3
2017-Sep-07 09:30N 36°26' E 030°37'612.8
2017-Sep-07 09:00N 36°32' E 030°38'612.6
2017-Sep-07 08:30N 36°39' E 030°39'612.4
2017-Sep-07 08:00N 36°45' E 030°38'4 9.0
2017-Sep-07 07:30N 36°49' E 030°37'0 0.6
2017-Sep-07 07:00N 36°50' E 030°37'0 0.0
2017-Sep-07 06:30N 36°50' E 030°37'0 0.0
2017-Sep-07 06:00N 36°50' E 030°37'0 0.0
2017-Sep-07 05:30N 36°50' E 030°37'0 0.0
2017-Sep-07 05:00N 36°50' E 030°37'0 0.0
2017-Sep-07 04:30N 36°50' E 030°37'0 0.0
2017-Sep-07 04:00N 36°50' E 030°37'0 0.0
2017-Sep-07 03:30N 36°50' E 030°37'0 0.0
2017-Sep-07 03:00N 36°50' E 030°37'0 0.0
2017-Sep-07 02:30N 36°50' E 030°37'0 0.0
2017-Sep-07 02:00N 36°50' E 030°37'0 0.0
2017-Sep-07 01:30N 36°50' E 030°37'0 0.0
2017-Sep-07 01:00N 36°50' E 030°37'0 0.0
2017-Sep-07 00:30N 36°50' E 030°37'0 0.0
2017-Sep-06 23:57N 36°50' E 030°37'0 0.0
2017-Sep-06 23:30N 36°50' E 030°37'0 0.0
2017-Sep-06 23:00N 36°50' E 030°37'0 0.0
2017-Sep-06 16:45N 36°50' E 030°37'0 0.0
2017-Sep-06 16:30N 36°50' E 030°37'0 0.0
2017-Sep-06 16:00N 36°50' E 030°37'0 0.0
2017-Sep-06 15:30N 36°50' E 030°37'0 0.0
2017-Sep-06 15:00N 36°50' E 030°37'0 0.0
2017-Sep-06 14:30N 36°50' E 030°37'0 0.0
2017-Sep-06 14:00N 36°50' E 030°37'0 0.0
2017-Sep-06 13:30N 36°50' E 030°37'0 0.0
2017-Sep-06 13:00N 36°50' E 030°37'0 0.0
2017-Sep-06 12:30N 36°50' E 030°37'0 0.0
2017-Sep-06 12:00N 36°50' E 030°37'0 0.0
2017-Sep-06 11:30N 36°50' E 030°37'0 0.0
2017-Sep-06 11:00N 36°50' E 030°37'0 0.0
2017-Sep-06 10:30N 36°50' E 030°37'0 0.0
2017-Sep-06 10:00N 36°50' E 030°37'0 0.0
2017-Sep-06 09:30N 36°50' E 030°37'0 0.0
2017-Sep-06 09:00N 36°50' E 030°37'0 0.0
2017-Sep-06 08:30N 36°50' E 030°37'0 0.0
2017-Sep-06 08:00N 36°50' E 030°37'0 0.0
2017-Sep-06 07:30N 36°50' E 030°37'0 0.0
2017-Sep-06 07:00N 36°50' E 030°37'0 0.0
2017-Sep-06 06:30N 36°50' E 030°37'0 0.0
2017-Sep-06 06:00N 36°50' E 030°37'0 0.0
2017-Sep-06 05:30N 36°50' E 030°37'0 0.0
2017-Sep-06 05:00N 36°50' E 030°37'0 0.0
2017-Sep-06 04:30N 36°50' E 030°37'0 0.0
2017-Sep-06 04:00N 36°50' E 030°37'0 0.0
2017-Sep-06 03:30N 36°50' E 030°37'0 0.0
2017-Sep-06 03:00N 36°50' E 030°37'0 0.0
2017-Sep-06 02:30N 36°50' E 030°37'0 0.0
2017-Sep-06 02:00N 36°50' E 030°37'0 0.0
2017-Sep-06 01:30N 36°50' E 030°37'0 0.0
2017-Sep-06 01:00N 36°50' E 030°37'0 0.0
2017-Sep-06 00:30N 36°50' E 030°37'0 0.0
2017-Sep-06 00:00N 36°50' E 030°37'0 0.0
2017-Sep-05 23:30N 36°50' E 030°37'0 0.0
2017-Sep-05 23:00N 36°50' E 030°37'0 0.0
2017-Sep-05 22:30N 36°50' E 030°37'0 0.0
2017-Sep-05 22:00N 36°50' E 030°37'0 0.0
2017-Sep-05 21:30N 36°50' E 030°37'0 0.0
2017-Sep-05 21:00N 36°50' E 030°37'0 0.0
2017-Sep-05 20:30N 36°50' E 030°37'0 0.0
2017-Sep-05 20:00N 36°50' E 030°37'0 0.0
2017-Sep-05 19:30N 36°50' E 030°37'0 0.0
2017-Sep-05 19:00N 36°50' E 030°37'0 0.0
2017-Sep-05 18:30N 36°50' E 030°37'0 0.0
2017-Sep-05 18:00N 36°50' E 030°37'0 0.0
2017-Sep-05 17:30N 36°50' E 030°37'0 0.0
2017-Sep-05 17:00N 36°50' E 030°37'0 0.0
2017-Sep-05 16:30N 36°50' E 030°37'0 0.0
2017-Sep-05 16:00N 36°50' E 030°37'0 0.0
2017-Sep-05 15:30N 36°50' E 030°37'0 0.0
2017-Sep-05 15:00N 36°50' E 030°37'0 0.0
2017-Sep-05 14:30N 36°50' E 030°37'0 0.0
2017-Sep-05 14:00N 36°50' E 030°37'0 0.0
2017-Sep-05 13:30N 36°50' E 030°37'  
Track history (hours):
 
Tides and Currents Weather Stations Pressure Air Temp Water Temp Dewpoint Dewpoint Depression Visibility Wind Speed Wind Dir Waves Ship Positions

Baki Akar

Last reported at 2017-Sep-15 13:26 UTC. Time now 2017-Sep-21 05:25 UTC.
Position N 37°28' E 025°56'.

Length 176 m; draft 10.1 m.

Type: Ship. MMSI: 271044414.

Date/timePositionNaut miles runAvg speedWind from/ knotsBaromVisibWave heightAir tempDewpointWater temp
2017-Sep-15 13:26N 37°28' E 025°56'512.4
2017-Sep-15 13:00N 37°33' E 025°54'13912.6
2017-Sep-15 02:01N 39°52' E 025°47'1213.0
2017-Sep-15 01:04N 40°00' E 025°58'312.6
2017-Sep-15 00:51N 40°01' E 026°02'  
2017-Sep-10 05:45N 40°44' E 029°38'312.0
2017-Sep-10 05:28N 40°45' E 029°34'610.4
2017-Sep-10 04:55N 40°44' E 029°26'4 8.9
2017-Sep-10 04:30N 40°43' E 029°22'4 8.9
2017-Sep-10 04:00N 40°44' E 029°16'611.5
2017-Sep-10 03:30N 40°44' E 029°08'611.8
2017-Sep-10 03:00N 40°44' E 029°00'611.5
2017-Sep-10 02:30N 40°43' E 028°53'611.8
2017-Sep-10 01:58N 40°43' E 028°45'1011.8
2017-Sep-10 01:08N 40°43' E 028°32'211.6
2017-Sep-10 00:59N 40°44' E 028°29'711.4
2017-Sep-10 00:24N 40°44' E 028°21'411.1
2017-Sep-10 00:00N 40°44' E 028°15'611.8
2017-Sep-09 23:30N 40°46' E 028°07'811.7
2017-Sep-09 22:51N 40°45' E 027°57'411.7
2017-Sep-09 22:30N 40°45' E 027°52'611.5
2017-Sep-09 22:00N 40°44' E 027°44'611.4
2017-Sep-09 21:30N 40°43' E 027°37'8510.7
2017-Sep-09 13:31N 39°58' E 026°01'411.8
2017-Sep-09 13:09N 39°56' E 025°57'211.5
2017-Sep-09 12:58N 39°54' E 025°55'510.3
2017-Sep-09 12:30N 39°50' E 025°51'510.0
2017-Sep-09 11:58N 39°47' E 025°57'1 1.3
2017-Sep-09 11:29N 39°47' E 025°58'0 0.0
2017-Sep-09 10:59N 39°47' E 025°58'0 0.0
2017-Sep-09 10:29N 39°47' E 025°58'0 0.0
2017-Sep-09 09:59N 39°47' E 025°58'0 0.0
2017-Sep-09 09:29N 39°47' E 025°58'0 0.0
2017-Sep-09 08:59N 39°47' E 025°58'0 0.0
2017-Sep-09 08:26N 39°47' E 025°58'0 0.0
2017-Sep-09 07:59N 39°47' E 025°58'0 0.0
2017-Sep-09 07:29N 39°47' E 025°58'0 0.0
2017-Sep-09 06:59N 39°47' E 025°58'0 0.0
2017-Sep-09 06:29N 39°47' E 025°58'0 0.0
2017-Sep-09 05:59N 39°47' E 025°58'0 0.0
2017-Sep-09 04:56N 39°47' E 025°58'0 0.0
2017-Sep-09 04:14N 39°47' E 025°58'0 0.0
2017-Sep-09 03:08N 39°47' E 025°58'0 0.0
2017-Sep-09 02:56N 39°47' E 025°58'0 0.0
2017-Sep-09 02:14N 39°47' E 025°58'0 0.0
2017-Sep-08 23:59N 39°47' E 025°58'0 0.0
2017-Sep-08 23:26N 39°47' E 025°58'0 0.0
2017-Sep-08 21:20N 39°47' E 025°58'0 0.0
2017-Sep-08 20:50N 39°47' E 025°58'0 0.0
2017-Sep-08 20:20N 39°47' E 025°58'0 0.0
2017-Sep-08 18:45N 39°46' E 025°58'12712.3
2017-Sep-08 08:24N 37°39' E 025°52'512.5
2017-Sep-08 08:00N 37°34' E 025°53'612.8
2017-Sep-08 07:30N 37°28' E 025°54'23211.3
2017-Sep-07 10:56N 36°09' E 030°27'613.4
2017-Sep-07 10:30N 36°13' E 030°31'713.9
2017-Sep-07 10:00N 36°20' E 030°35'713.3
2017-Sep-07 09:30N 36°26' E 030°37'612.8
2017-Sep-07 09:00N 36°32' E 030°38'612.6
2017-Sep-07 08:30N 36°39' E 030°39'612.4
2017-Sep-07 08:00N 36°45' E 030°38'4 9.0
2017-Sep-07 07:30N 36°49' E 030°37'0 0.6
2017-Sep-07 07:00N 36°50' E 030°37'0 0.0
2017-Sep-07 06:30N 36°50' E 030°37'0 0.0
2017-Sep-07 06:00N 36°50' E 030°37'0 0.0
2017-Sep-07 05:30N 36°50' E 030°37'0 0.0
2017-Sep-07 05:00N 36°50' E 030°37'0 0.0
2017-Sep-07 04:30N 36°50' E 030°37'0 0.0
2017-Sep-07 04:00N 36°50' E 030°37'0 0.0
2017-Sep-07 03:30N 36°50' E 030°37'0 0.0
2017-Sep-07 03:00N 36°50' E 030°37'0 0.0
2017-Sep-07 02:30N 36°50' E 030°37'0 0.0
2017-Sep-07 02:00N 36°50' E 030°37'0 0.0
2017-Sep-07 01:30N 36°50' E 030°37'0 0.0
2017-Sep-07 01:00N 36°50' E 030°37'0 0.0
2017-Sep-07 00:30N 36°50' E 030°37'0 0.0
2017-Sep-06 23:57N 36°50' E 030°37'0 0.0
2017-Sep-06 23:30N 36°50' E 030°37'0 0.0
2017-Sep-06 23:00N 36°50' E 030°37'0 0.0
2017-Sep-06 16:45N 36°50' E 030°37'0 0.0
2017-Sep-06 16:30N 36°50' E 030°37'0 0.0
2017-Sep-06 16:00N 36°50' E 030°37'0 0.0
2017-Sep-06 15:30N 36°50' E 030°37'0 0.0
2017-Sep-06 15:00N 36°50' E 030°37'0 0.0
2017-Sep-06 14:30N 36°50' E 030°37'0 0.0
2017-Sep-06 14:00N 36°50' E 030°37'0 0.0
2017-Sep-06 13:30N 36°50' E 030°37'0 0.0
2017-Sep-06 13:00N 36°50' E 030°37'0 0.0
2017-Sep-06 12:30N 36°50' E 030°37'0 0.0
2017-Sep-06 12:00N 36°50' E 030°37'0 0.0
2017-Sep-06 11:30N 36°50' E 030°37'0 0.0
2017-Sep-06 11:00N 36°50' E 030°37'0 0.0
2017-Sep-06 10:30N 36°50' E 030°37'0 0.0
2017-Sep-06 10:00N 36°50' E 030°37'0 0.0
2017-Sep-06 09:30N 36°50' E 030°37'0 0.0
2017-Sep-06 09:00N 36°50' E 030°37'0 0.0
2017-Sep-06 08:30N 36°50' E 030°37'0 0.0
2017-Sep-06 08:00N 36°50' E 030°37'0 0.0
2017-Sep-06 07:30N 36°50' E 030°37'0 0.0
2017-Sep-06 07:00N 36°50' E 030°37'0 0.0
2017-Sep-06 06:30N 36°50' E 030°37'0 0.0
2017-Sep-06 06:00N 36°50' E 030°37'0 0.0
2017-Sep-06 05:30N 36°50' E 030°37'0 0.0
2017-Sep-06 05:00N 36°50' E 030°37'0 0.0
2017-Sep-06 04:30N 36°50' E 030°37'0 0.0
2017-Sep-06 04:00N 36°50' E 030°37'0 0.0
2017-Sep-06 03:30N 36°50' E 030°37'0 0.0
2017-Sep-06 03:00N 36°50' E 030°37'0 0.0
2017-Sep-06 02:30N 36°50' E 030°37'0 0.0
2017-Sep-06 02:00N 36°50' E 030°37'0 0.0
2017-Sep-06 01:30N 36°50' E 030°37'0 0.0
2017-Sep-06 01:00N 36°50' E 030°37'0 0.0
2017-Sep-06 00:30N 36°50' E 030°37'0 0.0
2017-Sep-06 00:00N 36°50' E 030°37'0 0.0
2017-Sep-05 23:30N 36°50' E 030°37'0 0.0
2017-Sep-05 23:00N 36°50' E 030°37'0 0.0
2017-Sep-05 22:30N 36°50' E 030°37'0 0.0
2017-Sep-05 22:00N 36°50' E 030°37'0 0.0
2017-Sep-05 21:30N 36°50' E 030°37'0 0.0
2017-Sep-05 21:00N 36°50' E 030°37'0 0.0
2017-Sep-05 20:30N 36°50' E 030°37'0 0.0
2017-Sep-05 20:00N 36°50' E 030°37'0 0.0
2017-Sep-05 19:30N 36°50' E 030°37'0 0.0
2017-Sep-05 19:00N 36°50' E 030°37'0 0.0
2017-Sep-05 18:30N 36°50' E 030°37'0 0.0
2017-Sep-05 18:00N 36°50' E 030°37'0 0.0
2017-Sep-05 17:30N 36°50' E 030°37'0 0.0
2017-Sep-05 17:00N 36°50' E 030°37'0 0.0
2017-Sep-05 16:30N 36°50' E 030°37'0 0.0
2017-Sep-05 16:00N 36°50' E 030°37'0 0.0
2017-Sep-05 15:30N 36°50' E 030°37'0 0.0
2017-Sep-05 15:00N 36°50' E 030°37'0 0.0
2017-Sep-05 14:30N 36°50' E 030°37'0 0.0
2017-Sep-05 14:00N 36°50' E 030°37'0 0.0
2017-Sep-05 13:30N 36°50' E 030°37'  

Dump ship's entire track history